Time,TemperatureF,DewpointF,PressureIn,WindDirection,WindDirectionDegrees,WindSpeedMPH,WindSpeedGustMPH,Humidity,HourlyPrecipIn,Conditions,Clouds,dailyrainin,SolarRadiationWatts/m^2,SoftwareType,DateUTC
2013-07-19 00:00:00,58.1,50.6,30.21,SW,231,0.0,0.0,76,0.00,CLR,OVC,0.00,0.0,WeatherDisplay:10.37,2013-07-18 22:00:00,
2013-07-19 00:10:00,57.6,50.0,30.21,WSW,237,0.0,0.0,76,0.00,CLR,OVC,0.00,0.0,WeatherDisplay:10.37,2013-07-18 22:10:00,
2013-07-19 00:20:00,56.8,49.7,30.21,SW,231,0.0,0.0,77,0.00,CLR,OVC,0.00,0.0,WeatherDisplay:10.37,2013-07-18 22:20:00,
2013-07-19 00:30:00,56.5,49.4,30.21,SSW,212,0.0,0.0,77,0.00,CLR,OVC,0.00,0.0,WeatherDisplay:10.37,2013-07-18 22:30:00,
2013-07-19 00:40:00,55.6,48.5,30.21,SW,230,0.0,0.0,77,0.00,CLR,OVC,0.00,0.0,WeatherDisplay:10.37,2013-07-18 22:40:00,
2013-07-19 00:50:00,55.4,48.3,30.21,SW,218,0.0,0.0,77,0.00,CLR,OVC,0.00,0.0,WeatherDisplay:10.37,2013-07-18 22:50:00,
2013-07-19 01:00:00,55.0,48.0,30.21,SW,216,0.0,0.0,77,0.00,CLR,OVC,0.00,0.0,WeatherDisplay:10.37,2013-07-18 23:00:00,
2013-07-19 01:10:00,54.7,47.6,30.21,SW,231,0.0,0.0,77,0.00,CLR,OVC,0.00,0.0,WeatherDisplay:10.37,2013-07-18 23:10:00,
2013-07-19 01:20:00,54.3,47.6,30.21,SW,220,0.0,0.0,78,0.00,CLR,OVC,0.00,0.0,WeatherDisplay:10.37,2013-07-18 23:20:00,
2013-07-19 01:30:00,54.1,47.4,30.21,SW,220,0.0,0.0,78,0.00,CLR,OVC,0.00,0.0,WeatherDisplay:10.37,2013-07-18 23:30:00,
2013-07-19 01:40:00,53.6,46.9,30.21,SW,220,0.0,0.0,78,0.00,CLR,OVC,0.00,0.0,WeatherDisplay:10.37,2013-07-18 23:40:00,
2013-07-19 01:50:00,53.4,46.7,30.18,SSW,213,0.0,0.0,78,0.00,CLR,OVC,0.00,0.0,WeatherDisplay:10.37,2013-07-18 23:50:00,
2013-07-19 02:00:00,53.6,46.9,30.18,WSW,248,0.0,0.0,78,0.00,CLR,OVC,0.00,0.0,WeatherDisplay:10.37,2013-07-19 00:00:00,
2013-07-19 02:10:00,53.6,46.9,30.18,SW,230,0.0,0.0,78,0.00,CLR,OVC,0.00,0.0,WeatherDisplay:10.37,2013-07-19 00:10:00,
2013-07-19 02:20:00,53.1,46.4,30.18,SSW,209,0.0,0.0,78,0.00,CLR,OVC,0.00,0.0,WeatherDisplay:10.37,2013-07-19 00:20:00,
2013-07-19 02:30:00,52.9,46.2,30.18,SSW,206,0.0,0.0,78,0.00,CLR,OVC,0.00,0.0,WeatherDisplay:10.37,2013-07-19 00:30:00,
2013-07-19 02:40:00,52.7,46.4,30.18,SW,215,0.0,0.0,79,0.00,CLR,OVC,0.00,0.0,WeatherDisplay:10.37,2013-07-19 00:40:00,
2013-07-19 02:50:00,52.2,45.8,30.18,SSW,207,0.0,0.0,79,0.00,CLR,OVC,0.00,0.0,WeatherDisplay:10.37,2013-07-19 00:50:00,
2013-07-19 03:00:00,52.2,45.8,30.18,SSW,212,0.0,0.0,79,0.00,CLR,OVC,0.00,0.0,WeatherDisplay:10.37,2013-07-19 01:00:00,
2013-07-19 03:10:00,52.2,45.8,30.18,SSW,210,0.0,0.0,79,0.00,CLR,OVC,0.00,0.0,WeatherDisplay:10.37,2013-07-19 01:10:00,
2013-07-19 03:20:00,52.2,45.8,30.18,SW,224,0.0,0.0,79,0.00,CLR,OVC,0.00,0.0,WeatherDisplay:10.37,2013-07-19 01:20:00,
2013-07-19 03:30:00,51.8,45.5,30.18,SSW,213,0.0,0.0,79,0.00,CLR,OVC,0.00,0.0,WeatherDisplay:10.37,2013-07-19 01:30:00,
2013-07-19 03:40:00,51.4,45.1,30.18,SW,214,0.0,0.0,79,0.00,CLR,OVC,0.00,0.0,WeatherDisplay:10.37,2013-07-19 01:40:00,
2013-07-19 03:50:00,51.8,45.5,30.18,SW,220,0.0,0.0,79,0.00,CLR,OVC,0.00,0.0,WeatherDisplay:10.37,2013-07-19 01:50:00,
2013-07-19 04:00:00,51.8,45.5,30.18,SW,226,0.0,0.0,79,0.00,CLR,OVC,0.00,0.0,WeatherDisplay:10.37,2013-07-19 02:00:00,
2013-07-19 04:10:00,51.4,45.1,30.18,SW,216,0.0,0.0,79,0.00,CLR,OVC,0.00,0.0,WeatherDisplay:10.37,2013-07-19 02:10:00,
2013-07-19 04:20:00,51.6,45.3,30.18,WSW,239,0.0,0.0,79,0.00,CLR,OVC,0.00,0.0,WeatherDisplay:10.37,2013-07-19 02:20:00,
2013-07-19 04:30:00,51.4,45.1,30.18,SW,215,0.0,0.0,79,0.00,CLR,OVC,0.00,0.0,WeatherDisplay:10.37,2013-07-19 02:30:00,
2013-07-19 04:40:00,52.2,45.8,30.18,South,190,0.0,0.0,79,0.00,CLR,OVC,0.00,0.0,WeatherDisplay:10.37,2013-07-19 02:40:00,
2013-07-19 04:50:00,52.9,46.9,30.18,SSW,200,0.0,0.0,80,0.00,CLR,OVC,0.00,0.0,WeatherDisplay:10.37,2013-07-19 02:50:00,
2013-07-19 05:00:00,52.9,46.9,30.18,SSW,200,0.0,0.0,80,0.00,OVC,OVC,0.00,0.0,WeatherDisplay:10.37,2013-07-19 03:00:00,
2013-07-19 05:10:00,53.1,47.1,30.18,SW,223,0.0,0.0,80,0.00,OVC,OVC,0.00,0.0,WeatherDisplay:10.37,2013-07-19 03:10:00,
2013-07-19 05:20:00,52.9,46.9,30.18,WSW,254,0.0,0.0,80,0.00,OVC,OVC,0.00,0.0,WeatherDisplay:10.37,2013-07-19 03:20:00,
2013-07-19 05:30:00,53.4,47.4,30.18,West,270,0.0,0.0,80,0.00,OVC,OVC,0.00,0.0,WeatherDisplay:10.37,2013-07-19 03:30:00,
2013-07-19 05:40:00,52.9,46.9,30.18,SW,217,0.0,0.0,80,0.00,OVC,OVC,0.00,0.0,WeatherDisplay:10.37,2013-07-19 03:40:00,
2013-07-19 05:50:00,52.7,46.7,30.18,SW,218,0.0,0.0,80,0.00,OVC,OVC,0.00,0.0,WeatherDisplay:10.37,2013-07-19 03:50:00,
2013-07-19 06:00:00,52.9,46.9,30.18,SW,220,0.0,0.0,80,0.00,OVC,OVC,0.00,0.0,WeatherDisplay:10.37,2013-07-19 04:00:00,
2013-07-19 06:10:00,53.2,47.2,30.18,SW,216,0.0,0.0,80,0.00,OVC,OVC,0.00,0.0,WeatherDisplay:10.37,2013-07-19 04:10:00,
2013-07-19 06:20:00,54.1,48.1,30.18,North,3,0.0,0.0,80,0.00,OVC,OVC,0.00,0.0,WeatherDisplay:10.37,2013-07-19 04:20:00,
2013-07-19 06:30:00,55.4,49.3,30.18,North,355,0.0,0.0,80,0.00,OVC,OVC,0.00,0.0,WeatherDisplay:10.37,2013-07-19 04:30:00,
2013-07-19 06:40:00,56.5,50.4,30.18,SSW,210,0.0,0.0,80,0.00,OVC,OVC,0.00,0.0,WeatherDisplay:10.37,2013-07-19 04:40:00,
2013-07-19 06:50:00,59.4,53.2,30.18,WSW,240,0.0,0.0,80,0.00,OVC,OVC,0.00,0.0,WeatherDisplay:10.37,2013-07-19 04:50:00,
2013-07-19 07:00:00,60.8,54.6,30.18,WSW,240,0.0,0.0,80,0.00,OVC,OVC,0.00,0.0,WeatherDisplay:10.37,2013-07-19 05:00:00,
2013-07-19 07:10:00,61.7,55.5,30.18,SW,225,0.0,0.0,80,0.00,OVC,OVC,0.00,0.0,WeatherDisplay:10.37,2013-07-19 05:10:00,
2013-07-19 07:20:00,61.7,55.1,30.18,WSW,255,1.0,1.0,79,0.00,OVC,OVC,0.00,0.0,WeatherDisplay:10.37,2013-07-19 05:20:00,
2013-07-19 07:30:00,63.0,56.7,30.18,WSW,255,0.0,1.0,80,0.00,OVC,OVC,0.00,0.0,WeatherDisplay:10.37,2013-07-19 05:30:00,
2013-07-19 07:40:00,65.3,57.5,30.18,North,349,0.0,0.0,76,0.00,OVC,OVC,0.00,0.0,WeatherDisplay:10.37,2013-07-19 05:40:00,
2013-07-19 07:50:00,67.1,56.6,30.18,North,355,0.0,2.0,69,0.00,OVC,OVC,0.00,0.0,WeatherDisplay:10.37,2013-07-19 05:50:00,
2013-07-19 08:00:00,66.9,56.0,30.18,NNW,340,0.0,0.0,68,0.00,OVC,OVC,0.00,0.0,WeatherDisplay:10.37,2013-07-19 06:00:00,
2013-07-19 08:10:00,66.6,55.3,30.18,NNW,345,0.0,0.0,67,0.00,OVC,OVC,0.00,0.0,WeatherDisplay:10.37,2013-07-19 06:10:00,
2013-07-19 08:20:00,69.1,56.8,30.18,WSW,246,0.0,0.0,65,0.00,OVC,OVC,0.00,0.0,WeatherDisplay:10.37,2013-07-19 06:20:00,
2013-07-19 08:30:00,69.1,56.0,30.18,WNW,303,0.0,0.0,63,0.00,OVC,OVC,0.00,0.0,WeatherDisplay:10.37,2013-07-19 06:30:00,
2013-07-19 08:40:00,69.1,56.4,30.18,NNE,17,0.0,0.0,64,0.00,OVC,OVC,0.00,0.0,WeatherDisplay:10.37,2013-07-19 06:40:00,
2013-07-19 08:50:00,72.5,58.7,30.18,WSW,249,0.0,0.0,62,0.00,OVC,OVC,0.00,0.0,WeatherDisplay:10.37,2013-07-19 06:50:00,
2013-07-19 09:00:00,74.3,59.5,30.18,SW,226,0.0,0.0,60,0.00,OVC,OVC,0.00,0.0,WeatherDisplay:10.37,2013-07-19 07:00:00,
2013-07-19 09:10:00,75.2,58.9,30.18,WNW,296,0.0,0.0,57,0.00,OVC,OVC,0.00,0.0,WeatherDisplay:10.37,2013-07-19 07:10:00,
2013-07-19 09:20:00,74.3,58.1,30.18,North,353,1.0,1.0,57,0.00,OVC,OVC,0.00,0.0,WeatherDisplay:10.37,2013-07-19 07:20:00,
2013-07-19 09:30:00,73.8,57.1,30.18,NNW,340,0.0,1.0,56,0.00,OVC,OVC,0.00,0.0,WeatherDisplay:10.37,2013-07-19 07:30:00,
2013-07-19 09:40:00,76.3,59.4,30.18,NW,325,0.0,0.0,56,0.00,OVC,OVC,0.00,0.0,WeatherDisplay:10.37,2013-07-19 07:40:00,
2013-07-19 09:50:00,76.3,59.4,30.18,NNW,330,2.0,3.0,56,0.00,OVC,OVC,0.00,0.0,WeatherDisplay:10.37,2013-07-19 07:50:00,
2013-07-19 10:00:00,76.6,59.3,30.18,NW,316,0.0,2.0,55,0.00,OVC,OVC,0.00,0.0,WeatherDisplay:10.37,2013-07-19 08:00:00,
2013-07-19 10:10:00,77.7,59.2,30.18,NW,305,0.0,0.0,53,0.00,OVC,OVC,0.00,0.0,WeatherDisplay:10.37,2013-07-19 08:10:00,
2013-07-19 10:20:00,76.6,58.2,30.18,NNW,347,5.0,6.0,53,0.00,OVC,OVC,0.00,0.0,WeatherDisplay:10.37,2013-07-19 08:20:00,
2013-07-19 10:30:00,76.6,57.7,30.18,NNW,329,5.0,5.0,52,0.00,OVC,OVC,0.00,0.0,WeatherDisplay:10.37,2013-07-19 08:30:00,
2013-07-19 10:40:00,76.3,57.9,30.18,NNW,344,0.0,5.0,53,0.00,OVC,OVC,0.00,0.0,WeatherDisplay:10.37,2013-07-19 08:40:00,
2013-07-19 10:50:00,76.6,58.2,30.18,North,353,5.0,5.0,53,0.00,OVC,OVC,0.00,0.0,WeatherDisplay:10.37,2013-07-19 08:50:00,
2013-07-19 11:00:00,76.6,58.2,30.18,North,355,5.0,5.0,53,0.00,OVC,OVC,0.00,0.0,WeatherDisplay:10.37,2013-07-19 09:00:00,
2013-07-19 11:10:00,75.9,55.9,30.18,NNE,16,6.0,6.0,50,0.00,OVC,OVC,0.00,0.0,WeatherDisplay:10.37,2013-07-19 09:10:00,
2013-07-19 11:20:00,75.9,55.9,30.18,NNW,348,3.0,6.0,50,0.00,OVC,OVC,0.00,0.0,WeatherDisplay:10.37,2013-07-19 09:20:00,
2013-07-19 11:30:00,77.4,56.1,30.18,North,351,6.0,6.0,48,0.00,OVC,OVC,0.00,0.0,WeatherDisplay:10.37,2013-07-19 09:30:00,
2013-07-19 11:40:00,78.8,56.3,30.18,North,358,3.0,6.0,46,0.00,OVC,OVC,0.00,0.0,WeatherDisplay:10.37,2013-07-19 09:40:00,
2013-07-19 11:50:00,76.3,55.1,30.18,NNW,347,1.0,5.0,48,0.00,OVC,OVC,0.00,0.0,WeatherDisplay:10.37,2013-07-19 09:50:00,
2013-07-19 12:00:00,79.2,57.2,30.18,North,352,0.0,1.0,47,0.00,OVC,OVC,0.00,0.0,WeatherDisplay:10.37,2013-07-19 10:00:00,
2013-07-19 12:10:00,81.0,56.4,30.18,North,359,3.0,3.0,43,0.00,FEW,OVC,0.00,0.0,WeatherDisplay:10.37,2013-07-19 10:10:00,
2013-07-19 12:20:00,78.3,57.0,30.18,North,10,5.0,6.0,48,0.00,FEW,OVC,0.00,0.0,WeatherDisplay:10.37,2013-07-19 10:20:00,
2013-07-19 12:30:00,78.8,55.7,30.18,North,355,7.0,7.0,45,0.00,FEW,OVC,0.00,0.0,WeatherDisplay:10.37,2013-07-19 10:30:00,
2013-07-19 12:40:00,76.6,55.5,30.15,North,10,6.0,7.0,48,0.00,FEW,OVC,0.00,0.0,WeatherDisplay:10.37,2013-07-19 10:40:00,
2013-07-19 12:50:00,79.5,57.5,30.15,NNE,31,8.0,8.0,47,0.00,FEW,OVC,0.00,0.0,WeatherDisplay:10.37,2013-07-19 10:50:00,
2013-07-19 13:00:00,79.3,56.2,30.15,NNE,33,6.0,8.0,45,0.00,FEW,OVC,0.00,0.0,WeatherDisplay:10.37,2013-07-19 11:00:00,
2013-07-19 13:10:00,81.5,56.8,30.15,North,5,1.0,2.0,43,0.00,OVC,OVC,0.00,0.0,WeatherDisplay:10.37,2013-07-19 11:10:00,
2013-07-19 13:20:00,78.4,55.3,30.15,NNE,17,7.0,7.0,45,0.00,OVC,OVC,0.00,0.0,WeatherDisplay:10.37,2013-07-19 11:20:00,
2013-07-19 13:30:00,79.9,56.6,30.15,North,356,7.0,7.0,45,0.00,OVC,OVC,0.00,0.0,WeatherDisplay:10.37,2013-07-19 11:30:00,
2013-07-19 13:40:00,79.0,54.6,30.15,North,6,6.0,7.0,43,0.00,OVC,OVC,0.00,0.0,WeatherDisplay:10.37,2013-07-19 11:40:00,
2013-07-19 13:50:00,80.8,56.8,30.15,NE,38,8.0,8.0,44,0.00,OVC,OVC,0.00,0.0,WeatherDisplay:10.37,2013-07-19 11:50:00,
2013-07-19 14:00:00,77.7,54.7,30.15,NNE,29,3.0,8.0,45,0.00,OVC,OVC,0.00,0.0,WeatherDisplay:10.37,2013-07-19 12:00:00,
2013-07-19 14:10:00,78.3,55.2,30.15,NE,53,5.0,7.0,45,0.00,OVC,OVC,0.00,0.0,WeatherDisplay:10.37,2013-07-19 12:10:00,
2013-07-19 14:20:00,79.0,55.2,30.15,NE,50,5.0,7.0,44,0.00,OVC,OVC,0.00,0.0,WeatherDisplay:10.37,2013-07-19 12:20:00,
2013-07-19 14:30:00,80.2,55.1,30.15,ENE,60,7.0,7.0,42,0.00,OVC,OVC,0.00,0.0,WeatherDisplay:10.37,2013-07-19 12:30:00,
2013-07-19 14:40:00,79.5,55.1,30.15,NE,50,3.0,7.0,43,0.00,OVC,OVC,0.00,0.0,WeatherDisplay:10.37,2013-07-19 12:40:00,
2013-07-19 14:50:00,77.5,53.9,30.15,North,350,0.0,7.0,44,0.00,OVC,OVC,0.00,0.0,WeatherDisplay:10.37,2013-07-19 12:50:00,
2013-07-19 15:00:00,79.3,54.9,30.15,North,7,5.0,5.0,43,0.00,OVC,OVC,0.00,0.0,WeatherDisplay:10.37,2013-07-19 13:00:00,
2013-07-19 15:10:00,79.5,53.8,30.12,NE,35,9.0,9.0,41,0.00,OVC,OVC,0.00,0.0,WeatherDisplay:10.37,2013-07-19 13:10:00,
2013-07-19 15:20:00,79.2,54.1,30.12,North,354,8.0,9.0,42,0.00,OVC,OVC,0.00,0.0,WeatherDisplay:10.37,2013-07-19 13:20:00,
2013-07-19 15:30:00,78.8,54.4,30.12,North,355,5.0,8.0,43,0.00,OVC,OVC,0.00,0.0,WeatherDisplay:10.37,2013-07-19 13:30:00,
2013-07-19 15:40:00,80.6,55.4,30.12,NNW,347,6.0,7.0,42,0.00,OVC,OVC,0.00,0.0,WeatherDisplay:10.37,2013-07-19 13:40:00,
2013-07-19 15:50:00,81.3,55.4,30.12,NNW,344,6.0,6.0,41,0.00,OVC,OVC,0.00,0.0,WeatherDisplay:10.37,2013-07-19 13:50:00,
2013-07-19 16:00:00,81.3,56.0,30.12,North,1,5.0,6.0,42,0.00,OVC,OVC,0.00,0.0,WeatherDisplay:10.37,2013-07-19 14:00:00,
2013-07-19 16:10:00,81.5,56.2,30.12,NNW,348,3.0,6.0,42,0.00,OVC,OVC,0.00,0.0,WeatherDisplay:10.37,2013-07-19 14:10:00,
2013-07-19 16:20:00,81.0,56.4,30.12,North,357,7.0,9.0,43,0.00,OVC,OVC,0.00,0.0,WeatherDisplay:10.37,2013-07-19 14:20:00,
2013-07-19 16:30:00,81.0,56.4,30.12,North,353,9.0,9.0,43,0.00,OVC,OVC,0.00,0.0,WeatherDisplay:10.37,2013-07-19 14:30:00,
2013-07-19 16:40:00,80.6,57.3,30.12,North,355,6.0,9.0,45,0.00,OVC,OVC,0.00,0.0,WeatherDisplay:10.37,2013-07-19 14:40:00,
2013-07-19 16:50:00,81.7,57.0,30.12,NNW,345,5.0,6.0,43,0.00,OVC,OVC,0.00,0.0,WeatherDisplay:10.37,2013-07-19 14:50:00,
2013-07-19 17:00:00,81.7,57.0,30.12,NNW,345,5.0,5.0,43,0.00,OVC,OVC,0.00,0.0,WeatherDisplay:10.37,2013-07-19 15:00:00,
2013-07-19 17:10:00,80.4,55.9,30.12,North,353,6.0,6.0,43,0.00,OVC,OVC,0.00,0.0,WeatherDisplay:10.37,2013-07-19 15:10:00,
2013-07-19 17:20:00,80.2,56.3,30.09,NNE,25,3.0,6.0,44,0.00,OVC,OVC,0.00,0.0,WeatherDisplay:10.37,2013-07-19 15:20:00,
2013-07-19 17:30:00,80.1,55.5,30.09,NNE,25,8.0,8.0,43,0.00,OVC,OVC,0.00,0.0,WeatherDisplay:10.37,2013-07-19 15:30:00,
2013-07-19 17:40:00,79.7,55.2,30.09,NNE,22,6.0,8.0,43,0.00,OVC,OVC,0.00,0.0,WeatherDisplay:10.37,2013-07-19 15:40:00,
2013-07-19 17:50:00,79.7,55.2,30.09,North,5,5.0,6.0,43,0.00,OVC,OVC,0.00,0.0,WeatherDisplay:10.37,2013-07-19 15:50:00,
2013-07-19 18:00:00,79.0,54.6,30.09,North,2,9.0,9.0,43,0.00,OVC,OVC,0.00,0.0,WeatherDisplay:10.37,2013-07-19 16:00:00,
2013-07-19 18:10:00,79.3,54.9,30.09,NNE,19,9.0,10.0,43,0.00,OVC,OVC,0.00,0.0,WeatherDisplay:10.37,2013-07-19 16:10:00,
2013-07-19 18:20:00,79.3,54.9,30.09,North,8,6.0,9.0,43,0.00,OVC,OVC,0.00,0.0,WeatherDisplay:10.37,2013-07-19 16:20:00,
2013-07-19 18:30:00,79.2,54.7,30.09,North,355,5.0,6.0,43,0.00,OVC,OVC,0.00,0.0,WeatherDisplay:10.37,2013-07-19 16:30:00,
2013-07-19 18:40:00,77.5,53.9,30.09,NW,311,6.0,6.0,44,0.00,OVC,OVC,0.00,0.0,WeatherDisplay:10.37,2013-07-19 16:40:00,
2013-07-19 18:50:00,78.1,54.4,30.09,NW,325,7.0,7.0,44,0.00,OVC,OVC,0.00,0.0,WeatherDisplay:10.37,2013-07-19 16:50:00,
2013-07-19 19:00:00,78.6,54.9,30.09,NNW,342,6.0,7.0,44,0.00,OVC,OVC,0.00,0.0,WeatherDisplay:10.37,2013-07-19 17:00:00,
2013-07-19 19:10:00,77.9,54.2,30.09,North,1,7.0,7.0,44,0.00,OVC,OVC,0.00,0.0,WeatherDisplay:10.37,2013-07-19 17:10:00,
2013-07-19 19:20:00,76.5,54.7,30.09,North,9,6.0,7.0,47,0.00,OVC,OVC,0.00,0.0,WeatherDisplay:10.37,2013-07-19 17:20:00,
2013-07-19 19:30:00,76.3,54.6,30.09,NNE,23,7.0,7.0,47,0.00,OVC,OVC,0.00,0.0,WeatherDisplay:10.37,2013-07-19 17:30:00,
2013-07-19 19:40:00,75.6,53.9,30.09,North,1,6.0,7.0,47,0.00,OVC,OVC,0.00,0.0,WeatherDisplay:10.37,2013-07-19 17:40:00,
2013-07-19 19:50:00,75.2,54.7,30.09,North,10,5.0,7.0,49,0.00,OVC,OVC,0.00,0.0,WeatherDisplay:10.37,2013-07-19 17:50:00,
2013-07-19 20:00:00,74.8,54.4,30.09,North,350,6.0,6.0,49,0.00,OVC,OVC,0.00,0.0,WeatherDisplay:10.37,2013-07-19 18:00:00,
2013-07-19 20:10:00,74.1,54.3,30.09,NNW,348,5.0,7.0,50,0.00,OVC,OVC,0.00,0.0,WeatherDisplay:10.37,2013-07-19 18:10:00,
2013-07-19 20:20:00,73.0,54.9,30.09,North,359,3.0,5.0,53,0.00,OVC,OVC,0.00,0.0,WeatherDisplay:10.37,2013-07-19 18:20:00,
2013-07-19 20:30:00,72.5,54.4,30.09,North,1,3.0,4.0,53,0.00,OVC,OVC,0.00,0.0,WeatherDisplay:10.37,2013-07-19 18:30:00,
2013-07-19 20:40:00,71.8,54.7,30.09,NNW,335,0.0,3.0,55,0.00,OVC,OVC,0.00,0.0,WeatherDisplay:10.37,2013-07-19 18:40:00,
2013-07-19 20:50:00,70.9,54.4,30.09,North,353,2.0,3.0,56,0.00,OVC,OVC,0.00,0.0,WeatherDisplay:10.37,2013-07-19 18:50:00,
2013-07-19 21:00:00,70.5,54.5,30.09,NW,321,1.0,2.0,57,0.00,OVC,OVC,0.00,0.0,WeatherDisplay:10.37,2013-07-19 19:00:00,
2013-07-19 21:10:00,70.2,54.7,30.09,North,0,0.0,2.0,58,0.00,OVC,OVC,0.00,0.0,WeatherDisplay:10.37,2013-07-19 19:10:00,
2013-07-19 21:20:00,68.5,54.1,30.09,WSW,250,0.0,0.0,60,0.00,OVC,OVC,0.00,0.0,WeatherDisplay:10.37,2013-07-19 19:20:00,
2013-07-19 21:30:00,67.5,53.5,30.09,SSW,192,0.0,0.0,61,0.00,OVC,OVC,0.00,0.0,WeatherDisplay:10.37,2013-07-19 19:30:00,
2013-07-19 21:40:00,65.1,53.1,30.12,SW,225,0.0,0.0,65,0.00,CLR,OVC,0.00,0.0,WeatherDisplay:10.37,2013-07-19 19:40:00,
2013-07-19 21:50:00,63.1,52.4,30.12,WSW,240,0.0,0.0,68,0.00,CLR,OVC,0.00,0.0,WeatherDisplay:10.37,2013-07-19 19:50:00,
2013-07-19 22:00:00,62.8,52.1,30.12,WSW,239,0.0,0.0,68,0.00,CLR,OVC,0.00,0.0,WeatherDisplay:10.37,2013-07-19 20:00:00,
2013-07-19 22:10:00,62.6,52.3,30.12,WSW,257,0.0,0.0,69,0.00,CLR,OVC,0.00,0.0,WeatherDisplay:10.37,2013-07-19 20:10:00,
2013-07-19 22:20:00,62.2,52.3,30.12,SSW,196,0.0,0.0,70,0.00,CLR,OVC,0.00,0.0,WeatherDisplay:10.37,2013-07-19 20:20:00,
2013-07-19 22:30:00,62.6,52.3,30.12,South,189,0.0,0.0,69,0.00,CLR,OVC,0.00,0.0,WeatherDisplay:10.37,2013-07-19 20:30:00,
2013-07-19 22:40:00,63.3,53.0,30.12,SSW,197,0.0,0.0,69,0.00,CLR,OVC,0.00,0.0,WeatherDisplay:10.37,2013-07-19 20:40:00,
2013-07-19 22:50:00,62.6,51.9,30.12,South,190,0.0,0.0,68,0.00,CLR,OVC,0.00,0.0,WeatherDisplay:10.37,2013-07-19 20:50:00,
2013-07-19 23:00:00,61.7,51.4,30.12,SSW,194,0.0,0.0,69,0.00,CLR,OVC,0.00,0.0,WeatherDisplay:10.37,2013-07-19 21:00:00,
2013-07-19 23:10:00,60.4,50.6,30.12,South,184,0.0,0.0,70,0.00,CLR,OVC,0.00,0.0,WeatherDisplay:10.37,2013-07-19 21:10:00,
2013-07-19 23:20:00,59.2,50.2,30.12,South,181,0.0,0.0,72,0.00,CLR,OVC,0.00,0.0,WeatherDisplay:10.37,2013-07-19 21:20:00,
2013-07-19 23:30:00,59.0,50.4,30.12,South,191,0.0,0.0,73,0.00,CLR,OVC,0.00,0.0,WeatherDisplay:10.37,2013-07-19 21:30:00,
2013-07-19 23:40:00,57.7,49.5,30.12,SSW,203,0.0,0.0,74,0.00,CLR,OVC,0.00,0.0,WeatherDisplay:10.37,2013-07-19 21:40:00,
2013-07-19 23:50:00,56.7,48.8,30.12,SW,214,0.0,0.0,75,0.00,CLR,OVC,0.00,0.0,WeatherDisplay:10.37,2013-07-19 21:50:00,